Time;durP1;ratioP1;P1;durP2;ratioP2;P2;SDS_P1;SDS_P2;PMS_P1;PMS_P2;Temp;Humidity;BMP_temperature;BMP_pressure;BME280_temperature;BME280_humidity;BME280_pressure;Samples;Min_cycle;Max_cycle;Signal;HPM_P1;HPM_P2
2021/06/25 00:00:43;;;;;;;45.97;35.07;;;;;12.00;101469.00;;;;10525537;28;20177;-76
2021/06/25 00:05:45;;;;;;;50.03;36.70;;;;;11.90;101460.00;;;;10525611;28;20217;-76
2021/06/25 00:10:47;;;;;;;50.10;36.33;;;;;11.90;101449.00;;;;10492470;28;20547;-76
2021/06/25 00:15:49;;;;;;;53.33;38.17;;;;;11.90;101443.00;;;;10525965;28;20201;-76
2021/06/25 00:20:51;;;;;;;50.47;36.13;;;;;11.90;101435.00;;;;10464871;28;20761;-76
2021/06/25 00:25:53;;;;;;;49.77;35.23;;;;;11.80;101422.00;;;;10542960;28;20188;-76
2021/06/25 00:30:55;;;;;;;47.30;34.47;;;;;11.80;101428.00;;;;10550808;28;20188;-76
2021/06/25 00:35:57;;;;;;;48.47;35.00;;;;;11.70;101426.00;;;;10566552;28;20208;-76
2021/06/25 00:40:59;;;;;;;54.93;38.07;;;;;11.70;101416.00;;;;10566723;28;20250;-76
2021/06/25 00:46:01;;;;;;;62.00;39.43;;;;;11.70;101419.00;;;;10540823;28;20185;-76
2021/06/25 00:51:03;;;;;;;68.27;43.00;;;;;11.70;101411.00;;;;10490974;28;20204;-76
2021/06/25 00:56:05;;;;;;;63.20;43.30;;;;;11.80;101405.00;;;;10549348;28;20559;-76
2021/06/25 01:01:07;;;;;;;64.37;42.33;;;;;11.80;101393.00;;;;10533748;28;20684;-76
2021/06/25 01:06:10;;;;;;;60.93;40.63;;;;;11.80;101396.00;;;;10548520;28;20222;-76
2021/06/25 01:11:13;;;;;;;58.03;39.53;;;;;11.70;101388.00;;;;10546145;28;20241;-76
2021/06/25 01:16:16;;;;;;;54.27;37.53;;;;;11.70;101392.00;;;;10547913;28;20208;-76
2021/06/25 01:21:18;;;;;;;56.40;37.20;;;;;11.70;101387.00;;;;10565674;28;20192;-76
2021/06/25 01:26:20;;;;;;;56.37;38.23;;;;;11.60;101396.00;;;;10486649;28;20222;-76
2021/06/25 01:31:22;;;;;;;52.30;36.40;;;;;11.60;101402.00;;;;10464783;28;20240;-76
2021/06/25 01:36:24;;;;;;;46.70;34.53;;;;;11.60;101392.00;;;;10502648;28;20213;-76
2021/06/25 01:41:26;;;;;;;51.20;32.33;;;;;11.60;101395.00;;;;10505824;28;20210;-76
2021/06/25 01:46:28;;;;;;;43.63;28.90;;;;;11.50;101392.00;;;;10505380;28;20185;-77
2021/06/25 01:51:31;;;;;;;36.57;26.67;;;;;11.50;101396.00;;;;10504977;28;20193;-77
2021/06/25 01:56:32;;;;;;;38.53;26.37;;;;;11.50;101390.00;;;;10488534;28;20266;-76
2021/06/25 02:01:34;;;;;;;37.90;26.30;;;;;11.50;101393.00;;;;10522362;28;20200;-76
2021/06/25 02:06:36;;;;;;;30.57;22.73;;;;;11.50;101386.00;;;;10488769;28;20220;-76
2021/06/25 02:11:38;;;;;;;29.10;21.63;;;;;11.50;101389.00;;;;10505583;28;20567;-76
2021/06/25 02:16:40;;;;;;;28.30;21.70;;;;;11.50;101391.00;;;;10521458;28;20208;-76
2021/06/25 02:21:42;;;;;;;29.50;22.00;;;;;11.50;101390.00;;;;10520869;28;20659;-76
2021/06/25 02:26:44;;;;;;;25.87;20.47;;;;;11.50;101389.00;;;;10504395;28;20708;-76
2021/06/25 02:31:46;;;;;;;28.47;20.73;;;;;11.40;101399.00;;;;10502773;28;20228;-76
2021/06/25 02:36:48;;;;;;;27.10;20.90;;;;;11.50;101393.00;;;;10478299;28;20220;-76
2021/06/25 02:41:51;;;;;;;24.50;20.03;;;;;11.50;101387.00;;;;10463081;28;20548;-76
2021/06/25 02:46:52;;;;;;;25.97;19.80;;;;;11.60;101391.00;;;;10462036;28;20198;-76
2021/06/25 02:51:55;;;;;;;27.00;20.63;;;;;11.60;101396.00;;;;10462633;28;20190;-76
2021/06/25 02:56:56;;;;;;;26.80;20.90;;;;;11.70;101398.00;;;;10521298;28;20635;-76
2021/06/25 03:01:58;;;;;;;29.07;20.80;;;;;11.80;101393.00;;;;10487007;28;20189;-76
2021/06/25 03:07:02;;;;;;;25.87;20.53;;;;;11.80;101384.00;;;;10486950;28;20185;-76
2021/06/25 03:12:04;;;;;;;30.60;21.07;;;;;11.90;101377.00;;;;10503269;28;20196;-76
2021/06/25 03:17:07;;;;;;;33.60;20.07;;;;;11.90;101377.00;;;;10486099;28;20205;-76
2021/06/25 03:22:09;;;;;;;24.73;18.97;;;;;12.00;101379.00;;;;10520384;28;20192;-76
2021/06/25 03:27:11;;;;;;;27.50;20.53;;;;;12.00;101366.00;;;;10486446;28;20220;-76
2021/06/25 03:32:12;;;;;;;25.13;19.63;;;;;12.10;101368.00;;;;10519936;28;20213;-76
2021/06/25 03:37:15;;;;;;;25.13;18.63;;;;;12.20;101371.00;;;;10521870;28;20691;-76
2021/06/25 03:42:17;;;;;;;26.23;19.23;;;;;12.20;101369.00;;;;10511227;28;20195;-76
2021/06/25 03:47:19;;;;;;;30.23;19.80;;;;;12.30;101365.00;;;;10509878;28;20189;-76
2021/06/25 03:52:21;;;;;;;25.10;18.60;;;;;12.30;101366.00;;;;10506224;28;20551;-76
2021/06/25 03:57:22;;;;;;;26.17;19.40;;;;;12.30;101360.00;;;;10484493;28;20228;-76
2021/06/25 04:02:24;;;;;;;25.63;18.13;;;;;12.40;101356.00;;;;10485176;28;20185;-76
2021/06/25 04:07:27;;;;;;;22.07;18.27;;;;;12.40;101360.00;;;;10484249;28;20231;-76
2021/06/25 04:12:29;;;;;;;24.47;18.07;;;;;12.50;101358.00;;;;10502649;28;20192;-76
2021/06/25 04:17:31;;;;;;;26.00;18.67;;;;;12.60;101352.00;;;;10500336;28;20210;-76
2021/06/25 04:22:33;;;;;;;32.83;18.47;;;;;12.70;101352.00;;;;10523148;28;20200;-76
2021/06/25 04:27:35;;;;;;;26.30;18.07;;;;;12.80;101346.00;;;;10525826;28;20177;-76
2021/06/25 04:32:37;;;;;;;25.33;18.77;;;;;13.00;101348.00;;;;10508029;28;20219;-76
2021/06/25 04:37:40;;;;;;;23.70;18.43;;;;;13.20;101351.00;;;;10491479;28;20266;-76
2021/06/25 04:42:44;;;;;;;26.10;18.73;;;;;13.50;101350.00;;;;10524507;28;20193;-76
2021/06/25 04:47:46;;;;;;;23.67;17.20;;;;;13.80;101363.00;;;;10507391;28;20197;-76
2021/06/25 04:52:51;;;;;;;22.67;18.00;;;;;14.10;101361.00;;;;10516806;28;20233;-76
2021/06/25 04:57:55;;;;;;;23.47;16.83;;;;;14.30;101357.00;;;;10465452;28;20683;-76
2021/06/25 05:02:57;;;;;;;21.50;17.17;;;;;14.50;101342.00;;;;10539179;28;20246;-76
2021/06/25 05:07:59;;;;;;;20.23;16.10;;;;;14.60;101344.00;;;;10490424;28;20188;-76
2021/06/25 05:13:03;;;;;;;19.40;15.63;;;;;14.70;101341.00;;;;10523369;28;20556;-76
2021/06/25 05:18:16;;;;;;;23.03;15.27;;;;;14.80;101349.00;;;;10489836;28;20672;-76
2021/06/25 05:23:38;;;;;;;19.67;15.47;;;;;15.00;101347.00;;;;10526119;28;20242;-76
2021/06/25 05:28:40;;;;;;;19.53;14.60;;;;;15.20;101356.00;;;;10523225;28;20196;-76
2021/06/25 05:33:42;;;;;;;17.90;13.70;;;;;15.40;101357.00;;;;10505110;28;20225;-76
2021/06/25 05:38:44;;;;;;;18.97;14.23;;;;;15.70;101344.00;;;;10489044;28;20217;-76
2021/06/25 05:43:46;;;;;;;15.53;12.83;;;;;16.00;101350.00;;;;10506107;28;20663;-76
2021/06/25 05:48:48;;;;;;;16.20;12.07;;;;;16.30;101360.00;;;;10511987;28;20247;-76
2021/06/25 05:53:50;;;;;;;13.00;10.80;;;;;16.70;101360.00;;;;10480964;28;20194;-76
2021/06/25 05:58:52;;;;;;;12.73;10.20;;;;;17.00;101368.00;;;;10479119;28;20300;-76
2021/06/25 06:03:53;;;;;;;16.40;10.87;;;;;17.40;101364.00;;;;10479796;28;20197;-76
2021/06/25 06:08:55;;;;;;;16.00;10.93;;;;;17.90;101350.00;;;;10463129;28;20224;-76
2021/06/25 06:13:57;;;;;;;15.85;9.35;;;;;18.00;101358.00;;;;10499093;28;20636;-76
2021/06/25 06:19:00;;;;;;;12.73;8.95;;;;;18.10;101363.00;;;;10520772;28;20208;-76
2021/06/25 06:34:53;;;;;;;11.68;7.63;;;;;18.40;101352.00;;;;10496909;28;20676;-76
2021/06/25 06:39:55;;;;;;;12.27;7.18;;;;;19.20;101338.00;;;;10462463;28;20201;-76
2021/06/25 06:44:58;;;;;;;10.32;6.15;;;;;20.20;101338.00;;;;10462271;28;20193;-76
2021/06/25 06:50:00;;;;;;;9.55;6.90;;;;;20.90;101346.00;;;;10478039;28;20722;-76
2021/06/25 06:55:03;;;;;;;10.00;5.90;;;;;20.90;101331.00;;;;10466415;28;20202;-76
2021/06/25 07:00:06;;;;;;;8.50;5.72;;;;;20.80;101330.00;;;;10495801;28;20705;-76
2021/06/25 07:05:16;;;;;;;7.20;5.60;;;;;21.50;101323.00;;;;10478963;28;20202;-76
2021/06/25 07:10:18;;;;;;;8.38;5.93;;;;;21.90;101336.00;;;;10463251;28;20209;-76
2021/06/25 07:15:20;;;;;;;7.00;5.68;;;;;22.20;101329.00;;;;10486095;28;20216;-76
2021/06/25 07:20:22;;;;;;;7.82;5.68;;;;;22.40;101324.00;;;;10486474;28;20193;-76
2021/06/25 07:25:24;;;;;;;9.38;6.13;;;;;23.00;101320.00;;;;10486633;28;20201;-76
2021/06/25 07:30:27;;;;;;;9.95;5.68;;;;;23.20;101313.00;;;;10516522;28;20551;-76
2021/06/25 07:35:29;;;;;;;8.95;5.22;;;;;23.60;101314.00;;;;10523603;28;20214;-76
2021/06/25 07:40:31;;;;;;;8.13;5.88;;;;;23.60;101318.00;;;;10485529;28;20198;-76
2021/06/25 07:45:34;;;;;;;9.85;5.28;;;;;24.00;101311.00;;;;10485072;28;20653;-76
2021/06/25 07:50:36;;;;;;;5.95;5.35;;;;;24.00;101307.00;;;;10484969;28;20625;-76
2021/06/25 07:55:44;;;;;;;9.52;5.90;;;;;24.40;101296.00;;;;10541889;28;20222;-76
2021/06/25 08:00:46;;;;;;;7.72;5.38;;;;;25.10;101294.00;;;;10551928;28;20202;-76
2021/06/25 08:05:48;;;;;;;9.90;6.55;;;;;24.90;101295.00;;;;10526016;28;20197;-76
2021/06/25 08:10:50;;;;;;;8.23;6.20;;;;;24.70;101293.00;;;;10509771;28;20193;-76
2021/06/25 08:15:53;;;;;;;7.20;6.05;;;;;24.30;101286.00;;;;10492142;28;20707;-76
2021/06/25 08:20:57;;;;;;;7.57;6.00;;;;;24.10;101306.00;;;;10500793;28;20194;-76
2021/06/25 08:25:59;;;;;;;7.47;6.43;;;;;23.70;101295.00;;;;10467064;28;20750;-76
2021/06/25 08:31:01;;;;;;;8.75;6.47;;;;;23.50;101292.00;;;;10489121;28;20197;-76
2021/06/25 08:36:05;;;;;;;7.93;6.40;;;;;23.40;101283.00;;;;10473711;28;20224;-76
2021/06/25 08:41:07;;;;;;;9.27;6.45;;;;;23.50;101284.00;;;;10466698;28;20675;-76
2021/06/25 08:46:10;;;;;;;10.75;6.55;;;;;24.20;101281.00;;;;10483595;28;20186;-76
2021/06/25 08:51:12;;;;;;;8.40;6.43;;;;;25.20;101271.00;;;;10483543;28;20212;-77
2021/06/25 08:56:14;;;;;;;11.38;6.60;;;;;25.80;101277.00;;;;10516985;28;20216;-76
2021/06/25 09:01:16;;;;;;;9.35;5.80;;;;;25.80;101273.00;;;;10483106;28;20193;-76
2021/06/25 09:06:18;;;;;;;6.80;6.00;;;;;25.40;101265.00;;;;10465758;28;20193;-76
2021/06/25 09:11:26;;;;;;;11.13;5.88;;;;;25.10;101253.00;;;;10482161;28;20190;-76
2021/06/25 09:16:29;;;;;;;9.10;4.47;;;;;25.30;101254.00;;;;10465501;28;20213;-76
2021/06/25 09:21:43;;;;;;;6.18;4.60;;;;;25.10;101261.00;;;;10481859;28;20193;-77
2021/06/25 09:26:46;;;;;;;4.72;4.28;;;;;25.00;101253.00;;;;10483198;28;20246;-76
2021/06/25 09:31:59;;;;;;;6.15;4.85;;;;;24.60;101259.00;;;;10494112;28;20225;-77
2021/06/25 09:37:04;;;;;;;5.45;4.88;;;;;24.40;101267.00;;;;10469252;28;20231;-76
2021/06/25 09:42:18;;;;;;;6.85;4.22;;;;;24.70;101258.00;;;;10523036;28;20536;-76
2021/06/25 09:47:26;;;;;;;4.75;4.35;;;;;24.90;101266.00;;;;10512365;28;20194;-77
2021/06/25 09:52:50;;;;;;;6.35;4.78;;;;;25.30;101271.00;;;;10498112;28;20197;-76
2021/06/25 10:03:31;;;;;;;5.60;5.03;;;;;24.90;101262.00;;;;10571959;28;20200;-76
2021/06/25 10:08:33;;;;;;;8.60;6.65;;;;;24.50;101264.00;;;;10536006;28;20189;-76
2021/06/25 10:13:38;;;;;;;8.32;6.03;;;;;23.90;101267.00;;;;10494029;28;20870;-76
2021/06/25 10:18:41;;;;;;;10.52;6.88;;;;;23.20;101274.00;;;;10508794;28;20682;-76
2021/06/25 10:23:52;;;;;;;6.85;5.75;;;;;23.10;101267.00;;;;10561423;28;20589;-76
2021/06/25 10:28:55;;;;;;;7.22;6.55;;;;;23.30;101271.00;;;;10543966;28;20196;-76
2021/06/25 10:33:57;;;;;;;6.78;5.85;;;;;23.00;101283.00;;;;10526536;28;20599;-76
2021/06/25 10:39:13;;;;;;;7.05;6.28;;;;;22.40;101275.00;;;;10462229;28;20714;-76
2021/06/25 10:44:43;;;;;;;10.70;6.68;;;;;22.10;101275.00;;;;10494444;28;20196;-76
2021/06/25 10:50:01;;;;;;;9.73;7.10;;;;;22.10;101275.00;;;;10484893;28;20220;-76
2021/06/25 10:55:06;;;;;;;8.27;7.00;;;;;22.70;101269.00;;;;10500159;28;20231;-76
2021/06/25 11:00:08;;;;;;;11.02;6.82;;;;;23.50;101267.00;;;;10515171;28;20209;-77
2021/06/25 11:05:25;;;;;;;16.02;8.15;;;;;24.00;101271.00;;;;10510128;28;20186;-76
2021/06/25 11:10:30;;;;;;;10.63;7.95;;;;;24.10;101267.00;;;;10502309;28;20216;-76
2021/06/25 11:15:33;;;;;;;10.30;7.85;;;;;24.10;101266.00;;;;10494052;28;20221;-77
2021/06/25 11:20:39;;;;;;;8.82;7.80;;;;;24.00;101269.00;;;;10493951;28;20728;-76
2021/06/25 11:26:01;;;;;;;10.25;5.68;;;;;24.10;101265.00;;;;10467982;28;20185;-77
2021/06/25 11:31:14;;;;;;;6.82;5.40;;;;;23.90;101261.00;;;;10526351;28;20193;-76
2021/06/25 11:36:47;;;;;;;9.57;6.35;;;;;24.00;101267.00;;;;10479634;28;20214;-76
2021/06/25 11:42:06;;;;;;;11.15;6.60;;;;;23.90;101261.00;;;;10518359;28;20185;-77
2021/06/25 11:47:12;;;;;;;6.50;5.90;;;;;23.70;101256.00;;;;10484803;28;20197;-77
2021/06/25 11:52:17;;;;;;;7.63;6.50;;;;;23.70;101259.00;;;;10505356;28;20219;-76
2021/06/25 11:57:21;;;;;;;7.75;7.05;;;;;23.70;101258.00;;;;10521953;28;20274;-77
2021/06/25 12:02:23;;;;;;;9.25;7.70;;;;;24.00;101259.00;;;;10525039;28;20296;-76
2021/06/25 12:07:25;;;;;;;10.75;7.97;;;;;24.20;101241.00;;;;10493130;28;20574;-77
2021/06/25 12:12:32;;;;;;;10.80;6.95;;;;;24.40;101257.00;;;;10527141;28;20197;-77
2021/06/25 12:17:43;;;;;;;9.73;7.78;;;;;24.30;101252.00;;;;10518679;28;20212;-77
2021/06/25 12:22:52;;;;;;;17.38;8.02;;;;;24.40;101257.00;;;;10535317;28;20287;-77
2021/06/25 12:27:54;;;;;;;8.65;7.75;;;;;24.00;101247.00;;;;10539024;28;20201;-77
2021/06/25 12:33:01;;;;;;;11.38;7.97;;;;;23.80;101256.00;;;;10519337;28;20235;-77
2021/06/25 12:38:08;;;;;;;10.85;7.70;;;;;23.70;101256.00;;;;10483500;28;20689;-76
2021/06/25 12:43:12;;;;;;;11.00;8.10;;;;;23.80;101255.00;;;;10479466;28;20201;-76
2021/06/25 12:48:18;;;;;;;8.52;7.63;;;;;24.10;101248.00;;;;10496505;28;20208;-76
2021/06/25 12:53:30;;;;;;;15.40;8.52;;;;;23.90;101250.00;;;;10505236;28;20733;-76
2021/06/25 12:58:36;;;;;;;9.75;7.47;;;;;23.70;101244.00;;;;10503001;28;20209;-76
2021/06/25 13:03:43;;;;;;;8.65;6.40;;;;;23.30;101253.00;;;;10486072;28;20185;-77
2021/06/25 13:08:44;;;;;;;7.75;7.05;;;;;23.40;101243.00;;;;10504459;28;20242;-76
2021/06/25 13:13:46;;;;;;;11.85;6.97;;;;;23.20;101245.00;;;;10488036;28;20197;-76
2021/06/25 13:18:50;;;;;;;7.32;6.30;;;;;23.40;101252.00;;;;10524731;28;20205;-76
2021/06/25 13:24:14;;;;;;;10.68;7.70;;;;;23.50;101244.00;;;;10489302;28;20197;-76
2021/06/25 13:29:19;;;;;;;8.20;7.25;;;;;23.90;101242.00;;;;10465263;28;20254;-76
2021/06/25 13:34:22;;;;;;;9.75;6.68;;;;;25.00;101233.00;;;;10486349;28;21022;-76
2021/06/25 13:39:26;;;;;;;9.68;8.25;;;;;25.90;101236.00;;;;10467918;28;20229;-77
2021/06/25 13:44:35;;;;;;;10.63;7.60;;;;;26.00;101231.00;;;;10543410;28;20215;-77
2021/06/25 13:49:39;;;;;;;11.65;7.47;;;;;26.20;101237.00;;;;10532818;28;20231;-77
2021/06/25 13:54:42;;;;;;;8.45;7.63;;;;;25.50;101246.00;;;;10534587;28;20227;-77
2021/06/25 13:59:43;;;;;;;9.13;8.18;;;;;24.80;101240.00;;;;10503335;28;20240;-77
2021/06/25 14:04:45;;;;;;;9.70;8.48;;;;;24.40;101234.00;;;;10509144;28;20189;-77
2021/06/25 14:09:49;;;;;;;9.77;8.75;;;;;23.60;101235.00;;;;10496059;28;20196;-77
2021/06/25 14:14:52;;;;;;;13.20;9.43;;;;;23.00;101245.00;;;;10512703;28;20193;-77
2021/06/25 14:19:54;;;;;;;9.52;8.40;;;;;22.50;101236.00;;;;10507313;28;20204;-77
2021/06/25 14:24:56;;;;;;;9.30;8.40;;;;;22.60;101240.00;;;;10495781;28;20854;-77
2021/06/25 14:29:57;;;;;;;10.77;9.68;;;;;23.00;101239.00;;;;10502498;28;20197;-77
2021/06/25 14:34:59;;;;;;;13.68;10.13;;;;;23.10;101236.00;;;;10483618;28;20217;-77
2021/06/25 14:40:01;;;;;;;11.20;9.90;;;;;23.00;101243.00;;;;10484138;28;20214;-77
2021/06/25 14:45:09;;;;;;;14.30;10.38;;;;;22.90;101243.00;;;;10482760;28;20189;-77
2021/06/25 14:50:12;;;;;;;13.57;10.57;;;;;22.50;101247.00;;;;10496697;28;20196;-77
2021/06/25 14:55:14;;;;;;;9.90;8.38;;;;;22.10;101240.00;;;;10538206;28;20200;-77
2021/06/25 15:00:16;;;;;;;11.23;9.27;;;;;21.60;101242.00;;;;10483001;28;20205;-77
2021/06/25 15:05:18;;;;;;;15.27;10.90;;;;;21.20;101246.00;;;;10481072;28;20204;-77
2021/06/25 15:10:20;;;;;;;14.93;11.10;;;;;21.20;101256.00;;;;10468515;28;20200;-77
2021/06/25 15:15:22;;;;;;;16.73;10.25;;;;;21.00;101265.00;;;;10514496;28;20236;-77
2021/06/25 15:20:24;;;;;;;18.55;13.55;;;;;20.60;101264.00;;;;10500099;28;20218;-77
2021/06/25 15:25:26;;;;;;;18.52;14.55;;;;;20.20;101271.00;;;;10480661;28;20205;-77
2021/06/25 15:30:28;;;;;;;15.85;14.20;;;;;19.80;101277.00;;;;10482884;28;20201;-77
2021/06/25 15:35:31;;;;;;;21.50;16.42;;;;;19.30;101279.00;;;;10469045;28;20225;-77
2021/06/25 15:40:35;;;;;;;21.77;17.83;;;;;19.00;101281.00;;;;10502769;28;20304;-76
2021/06/25 15:45:39;;;;;;;18.70;16.70;;;;;19.00;101275.00;;;;10478724;28;20258;-76
2021/06/25 15:50:41;;;;;;;23.00;17.17;;;;;19.20;101275.00;;;;10508241;28;20762;-76
2021/06/25 15:55:47;;;;;;;24.52;18.02;;;;;19.10;101276.00;;;;10541171;28;20727;-76
2021/06/25 16:00:50;;;;;;;21.85;17.92;;;;;18.90;101267.00;;;;10561387;28;20739;-77
2021/06/25 16:05:59;;;;;;;25.40;18.75;;;;;18.60;101270.00;;;;10486254;28;20224;-76
2021/06/25 16:11:05;;;;;;;23.63;19.42;;;;;18.90;101263.00;;;;10499594;28;20192;-76
2021/06/25 16:16:07;;;;;;;23.50;19.40;;;;;19.30;101264.00;;;;10484114;28;20198;-76
2021/06/25 16:21:11;;;;;;;20.33;17.60;;;;;19.40;101260.00;;;;10500888;28;20211;-76
2021/06/25 16:26:17;;;;;;;19.80;17.33;;;;;19.40;101258.00;;;;10490327;28;20648;-76
2021/06/25 16:31:20;;;;;;;19.98;16.30;;;;;19.20;101257.00;;;;10464712;28;20197;-76
2021/06/25 16:36:23;;;;;;;24.15;16.75;;;;;19.00;101263.00;;;;10499174;28;20221;-76
2021/06/25 16:41:26;;;;;;;20.02;15.95;;;;;18.80;101261.00;;;;10513378;28;20594;-76
2021/06/25 16:46:28;;;;;;;19.55;16.58;;;;;18.50;101262.00;;;;10526147;28;20189;-76
2021/06/25 16:51:30;;;;;;;17.90;15.00;;;;;18.60;101270.00;;;;10487710;28;20193;-76
2021/06/25 16:56:33;;;;;;;21.08;17.15;;;;;18.50;101266.00;;;;10513638;28;20207;-76
2021/06/25 17:01:35;;;;;;;20.13;16.60;;;;;18.40;101260.00;;;;10522041;28;20208;-76
2021/06/25 17:06:37;;;;;;;24.35;17.92;;;;;18.20;101259.00;;;;10521840;28;20224;-77
2021/06/25 17:11:39;;;;;;;22.63;18.23;;;;;18.10;101257.00;;;;10508435;28;20185;-76
2021/06/25 17:16:41;;;;;;;22.60;17.95;;;;;18.00;101257.00;;;;10496456;28;20236;-76
2021/06/25 17:21:44;;;;;;;26.45;19.65;;;;;17.90;101254.00;;;;10487663;28;20197;-77
2021/06/25 17:26:45;;;;;;;24.63;19.58;;;;;17.80;101255.00;;;;10513524;28;20220;-76
2021/06/25 17:31:51;;;;;;;25.08;18.27;;;;;17.50;101266.00;;;;10499858;28;20231;-76
2021/06/25 17:36:52;;;;;;;26.02;19.60;;;;;17.20;101258.00;;;;10486131;28;20213;-76
2021/06/25 17:41:54;;;;;;;26.23;20.52;;;;;17.10;101258.00;;;;10516269;28;20195;-76
2021/06/25 17:46:56;;;;;;;27.85;20.83;;;;;17.10;101258.00;;;;10496569;28;20263;-76
2021/06/25 17:51:58;;;;;;;25.55;20.17;;;;;17.10;101253.00;;;;10505478;28;20539;-76
2021/06/25 17:57:00;;;;;;;24.52;20.17;;;;;17.10;101252.00;;;;10488804;28;20826;-76
2021/06/25 18:02:02;;;;;;;21.88;18.80;;;;;17.20;101249.00;;;;10522973;28;20199;-76
2021/06/25 18:07:05;;;;;;;21.73;17.73;;;;;17.30;101248.00;;;;10522803;28;20189;-76
2021/06/25 18:12:07;;;;;;;19.05;16.27;;;;;17.30;101252.00;;;;10488673;28;20238;-76
2021/06/25 18:17:13;;;;;;;17.48;15.27;;;;;17.30;101247.00;;;;10541245;28;20201;-76
2021/06/25 18:22:15;;;;;;;19.58;15.98;;;;;17.30;101254.00;;;;10505970;28;20220;-76
2021/06/25 18:27:17;;;;;;;21.08;16.00;;;;;17.40;101255.00;;;;10486478;28;20201;-76
2021/06/25 18:32:19;;;;;;;22.35;15.90;;;;;17.60;101252.00;;;;10497602;28;20684;-76
2021/06/25 18:37:21;;;;;;;18.70;15.38;;;;;17.50;101257.00;;;;10463480;28;20219;-76
2021/06/25 18:42:23;;;;;;;16.92;15.13;;;;;17.40;101240.00;;;;10496140;28;20185;-76
2021/06/25 18:47:26;;;;;;;18.70;16.52;;;;;17.30;101249.00;;;;10430439;28;20221;-76
2021/06/25 18:52:28;;;;;;;20.10;16.58;;;;;17.10;101244.00;;;;10497332;28;20197;-76
2021/06/25 18:57:29;;;;;;;24.40;17.13;;;;;16.90;101247.00;;;;10479215;28;20720;-76
2021/06/25 19:02:32;;;;;;;20.50;16.95;;;;;16.80;101256.00;;;;10462035;28;20189;-76
2021/06/25 19:07:37;;;;;;;23.95;18.98;;;;;16.80;101252.00;;;;10458041;28;20584;-76
2021/06/25 19:12:40;;;;;;;24.35;18.90;;;;;16.80;101257.00;;;;10437681;28;20208;-76
2021/06/25 19:17:43;;;;;;;20.53;17.23;;;;;16.80;101263.00;;;;10505237;28;20206;-76
2021/06/25 19:22:45;;;;;;;22.35;15.90;;;;;16.80;101264.00;;;;10478277;28;20201;-76
2021/06/25 19:27:47;;;;;;;20.70;14.57;;;;;16.80;101270.00;;;;10529230;28;20185;-76
2021/06/25 19:32:50;;;;;;;16.92;12.63;;;;;16.70;101270.00;;;;10511224;28;20243;-76
2021/06/25 19:37:51;;;;;;;16.83;11.32;;;;;16.70;101268.00;;;;10511826;28;20217;-76
2021/06/25 19:42:55;;;;;;;12.20;9.27;;;;;16.60;101267.00;;;;10528018;28;20193;-76
2021/06/25 19:47:57;;;;;;;15.70;12.52;;;;;16.60;101274.00;;;;10527479;28;20647;-76
2021/06/25 19:52:59;;;;;;;17.63;12.97;;;;;16.60;101280.00;;;;10484814;28;20208;-76
2021/06/25 19:58:02;;;;;;;14.80;12.20;;;;;16.50;101274.00;;;;10486397;28;20213;-76
2021/06/25 20:03:04;;;;;;;15.33;12.90;;;;;16.50;101278.00;;;;10485247;28;20193;-76
2021/06/25 20:08:06;;;;;;;20.00;13.63;;;;;16.50;101276.00;;;;10452285;28;20198;-76
2021/06/25 20:13:08;;;;;;;19.30;13.03;;;;;16.40;101284.00;;;;10484662;28;20197;-76
2021/06/25 20:18:10;;;;;;;16.70;11.63;;;;;16.40;101290.00;;;;10501988;28;20206;-76
2021/06/25 20:23:12;;;;;;;19.20;12.73;;;;;16.30;101284.00;;;;10485289;28;20201;-76
2021/06/25 20:28:14;;;;;;;18.43;13.07;;;;;16.40;101294.00;;;;10484731;28;20198;-76
2021/06/25 20:33:16;;;;;;;12.83;10.47;;;;;16.40;101297.00;;;;10483957;28;20221;-76
2021/06/25 20:38:18;;;;;;;14.03;9.93;;;;;16.40;101295.00;;;;10467665;28;20240;-76
2021/06/25 20:43:20;;;;;;;13.97;10.60;;;;;16.40;101301.00;;;;10466597;28;20190;-76
2021/06/25 20:48:23;;;;;;;12.53;9.97;;;;;16.40;101304.00;;;;10483836;28;20193;-76
2021/06/25 20:53:26;;;;;;;12.43;10.27;;;;;16.30;101309.00;;;;10496248;28;20224;-76
2021/06/25 20:58:28;;;;;;;12.00;9.37;;;;;16.30;101307.00;;;;10475183;28;20626;-76
2021/06/25 21:03:32;;;;;;;11.27;9.17;;;;;16.30;101307.00;;;;10525723;28;20212;-76
2021/06/25 21:08:34;;;;;;;11.77;9.60;;;;;16.30;101313.00;;;;10491590;28;20185;-76
2021/06/25 21:13:36;;;;;;;14.65;12.18;;;;;16.20;101306.00;;;;10525039;28;20276;-76
2021/06/25 21:18:38;;;;;;;16.87;13.10;;;;;16.30;101308.00;;;;10524788;28;20212;-76
2021/06/25 21:23:41;;;;;;;16.67;12.30;;;;;16.30;101314.00;;;;10509350;28;20296;-76
2021/06/25 21:28:42;;;;;;;16.77;13.73;;;;;16.40;101310.00;;;;10482419;28;20194;-76
2021/06/25 21:33:45;;;;;;;25.40;18.15;;;;;16.40;101307.00;;;;10481258;28;20217;-76
2021/06/25 21:38:47;;;;;;;32.97;21.20;;;;;16.30;101304.00;;;;10465191;28;20312;-76
2021/06/25 21:43:49;;;;;;;33.83;21.33;;;;;16.30;101303.00;;;;10481891;28;20197;-76
2021/06/25 21:48:51;;;;;;;31.73;20.37;;;;;16.30;101302.00;;;;10448267;28;20405;-76
2021/06/25 21:53:53;;;;;;;29.37;19.87;;;;;16.20;101297.00;;;;10498091;28;20231;-76
2021/06/25 21:58:55;;;;;;;25.45;18.58;;;;;16.20;101295.00;;;;10506500;28;20201;-77
2021/06/25 22:03:57;;;;;;;27.43;20.40;;;;;16.20;101304.00;;;;10505926;28;20197;-76
2021/06/25 22:08:58;;;;;;;30.90;19.03;;;;;16.10;101306.00;;;;10516509;28;20244;-76
2021/06/25 22:14:01;;;;;;;28.67;19.73;;;;;16.10;101303.00;;;;10481595;28;20190;-76
2021/06/25 22:19:04;;;;;;;26.97;19.27;;;;;16.10;101301.00;;;;10463983;28;20209;-76
2021/06/25 22:24:06;;;;;;;30.10;19.87;;;;;16.10;101297.00;;;;10515788;28;20201;-76
2021/06/25 22:29:08;;;;;;;27.53;19.07;;;;;16.00;101306.00;;;;10488153;28;20196;-76
2021/06/25 22:34:10;;;;;;;33.33;20.73;;;;;16.00;101307.00;;;;10488446;28;20216;-76
2021/06/25 22:39:12;;;;;;;29.90;19.90;;;;;16.00;101306.00;;;;10505150;28;20617;-76
2021/06/25 22:44:13;;;;;;;31.20;18.93;;;;;16.00;101309.00;;;;10505342;28;20722;-76
2021/06/25 22:49:15;;;;;;;33.93;21.00;;;;;16.10;101314.00;;;;10487526;28;20184;-76
2021/06/25 22:54:17;;;;;;;31.63;22.40;;;;;16.10;101307.00;;;;10542441;28;20226;-76
2021/06/25 22:59:19;;;;;;;34.43;24.20;;;;;16.00;101308.00;;;;10562939;28;20212;-77
2021/06/25 23:04:21;;;;;;;44.10;28.83;;;;;16.00;101312.00;;;;10529414;28;20196;-76
2021/06/25 23:09:24;;;;;;;40.97;24.67;;;;;16.00;101326.00;;;;10546803;28;20189;-76
2021/06/25 23:14:25;;;;;;;38.93;23.43;;;;;16.00;101322.00;;;;10545934;28;20200;-76
2021/06/25 23:19:27;;;;;;;38.07;23.33;;;;;15.90;101320.00;;;;10562240;28;20216;-76
2021/06/25 23:24:29;;;;;;;37.67;22.17;;;;;15.90;101319.00;;;;10546202;28;20194;-76
2021/06/25 23:29:31;;;;;;;38.83;24.83;;;;;15.90;101317.00;;;;10580313;28;20184;-76
2021/06/25 23:34:34;;;;;;;45.27;25.30;;;;;15.90;101318.00;;;;10546222;28;20224;-76
2021/06/25 23:39:36;;;;;;;42.00;26.50;;;;;16.00;101321.00;;;;10562735;28;20579;-76
2021/06/25 23:44:38;;;;;;;44.87;26.47;;;;;15.90;101309.00;;;;10529594;28;20188;-76
2021/06/25 23:49:39;;;;;;;45.30;27.23;;;;;15.90;101311.00;;;;10563107;28;20181;-76
2021/06/25 23:54:41;;;;;;;45.47;27.97;;;;;15.80;101312.00;;;;10549038;28;20192;-76
2021/06/25 23:59:43;;;;;;;47.53;27.20;;;;;15.80;101316.00;;;;10553551;28;20219;-76
